Time;durP1;ratioP1;P1;durP2;ratioP2;P2;SDS_P1;SDS_P2;PMS_P1;PMS_P2;Temp;Humidity;BMP_temperature;BMP_pressure;BME280_temperature;BME280_humidity;BME280_pressure;Samples;Min_cycle;Max_cycle;Signal;HPM_P1;HPM_P2
2022/05/24 00:00:44;;;;;;;12.13;6.82;;;19.80;99.90;;;;;;5002755;28;20492;-57
2022/05/24 00:03:10;;;;;;;7.80;6.65;;;19.80;99.90;;;;;;5007130;28;20026;-53
2022/05/24 00:05:37;;;;;;;9.50;6.47;;;19.80;99.90;;;;;;5004199;28;20030;-48
2022/05/24 00:08:05;;;;;;;8.18;6.13;;;19.90;99.90;;;;;;5005640;28;20061;-51
2022/05/24 00:10:32;;;;;;;8.23;6.05;;;20.00;99.90;;;;;;5004387;28;20113;-48
2022/05/24 00:12:58;;;;;;;8.48;6.07;;;20.00;99.90;;;;;;5004566;28;20034;-56
2022/05/24 00:15:30;;;;;;;8.55;5.80;;;19.90;99.90;;;;;;5006951;28;20397;-53
2022/05/24 00:18:06;;;;;;;8.65;5.95;;;19.90;99.90;;;;;;5003664;28;20030;-54
2022/05/24 00:20:39;;;;;;;8.60;5.85;;;19.80;99.90;;;;;;5004370;28;20022;-53
2022/05/24 00:23:05;;;;;;;9.43;5.97;;;19.80;99.90;;;;;;5003273;28;20109;-51
2022/05/24 00:25:32;;;;;;;8.93;6.07;;;19.80;99.90;;;;;;5006383;28;20507;-53
2022/05/24 00:27:58;;;;;;;8.32;5.07;;;19.70;99.90;;;;;;5002610;28;20042;-56
2022/05/24 00:30:24;;;;;;;9.30;5.97;;;19.70;99.90;;;;;;5004569;28;20409;-49
2022/05/24 00:32:50;;;;;;;10.10;5.72;;;19.80;99.90;;;;;;5003381;28;20033;-54
2022/05/24 00:35:16;;;;;;;9.25;5.43;;;19.70;99.90;;;;;;5008977;28;20028;-48
2022/05/24 00:37:46;;;;;;;10.23;5.50;;;19.70;99.90;;;;;;5014405;28;20037;-51
2022/05/24 00:40:31;;;;;;;6.68;4.90;;;19.60;99.90;;;;;;5014544;28;20037;-51
2022/05/24 00:42:57;;;;;;;7.97;5.35;;;19.60;99.90;;;;;;5014590;28;20095;-57
2022/05/24 00:45:30;;;;;;;9.65;4.90;;;19.50;99.90;;;;;;5014953;28;20404;-54
2022/05/24 00:48:12;;;;;;;8.13;4.75;;;19.50;99.90;;;;;;5013057;28;20401;-54
2022/05/24 00:50:45;;;;;;;6.63;5.40;;;19.50;99.90;;;;;;5013381;28;20030;-51
2022/05/24 00:53:14;;;;;;;7.32;6.00;;;19.40;99.90;;;;;;5013956;28;20037;-56
2022/05/24 00:55:48;;;;;;;6.90;4.60;;;19.50;99.90;;;;;;5012213;28;20026;-54
2022/05/24 00:58:23;;;;;;;;;;;19.40;99.90;;;;;;5012639;28;20034;-55
2022/05/24 01:00:49;;;;;;;7.10;5.00;;;19.40;99.90;;;;;;5013440;28;20357;-50
2022/05/24 01:03:15;;;;;;;6.82;4.53;;;19.30;99.90;;;;;;5012965;28;20065;-53
2022/05/24 01:05:42;;;;;;;9.65;4.82;;;19.30;99.90;;;;;;5013108;28;20124;-52
2022/05/24 01:08:10;;;;;;;6.60;4.68;;;19.40;99.90;;;;;;4996054;28;20520;-49
2022/05/24 01:10:48;;;;;;;6.18;4.60;;;19.40;99.90;;;;;;5012722;28;20401;-51
2022/05/24 01:13:23;;;;;;;6.93;4.70;;;19.40;99.90;;;;;;5012519;28;20042;-56
2022/05/24 01:15:51;;;;;;;6.90;4.90;;;19.40;99.90;;;;;;5012275;28;20025;-51
2022/05/24 01:18:17;;;;;;;8.80;4.55;;;19.40;99.90;;;;;;5013331;28;20121;-49
2022/05/24 01:20:46;;;;;;;7.40;5.45;;;19.30;99.90;;;;;;5013304;28;20026;-48
2022/05/24 01:23:45;;;;;;;11.10;5.07;;;19.30;99.90;;;;;;5004592;28;20018;-54
2022/05/24 01:26:35;;;;;;;6.60;4.55;;;19.20;99.90;;;;;;5011565;28;20143;-52
2022/05/24 01:29:05;;;;;;;14.88;5.82;;;19.20;99.90;;;;;;5012528;28;20026;-50
2022/05/24 01:36:09;;;;;;;6.82;5.03;;;19.30;99.90;;;;;;5012395;28;20038;-49
2022/05/24 01:37:03;;;;;;;8.18;4.88;;;19.20;99.90;;;;;;4992475;28;20026;-53
2022/05/24 01:39:29;;;;;;;8.98;5.60;;;19.20;99.90;;;;;;4996852;28;20033;-49
2022/05/24 01:41:55;;;;;;;5.88;4.90;;;19.20;99.90;;;;;;4995908;28;20038;-53
2022/05/24 01:45:03;;;;;;;9.10;5.38;;;19.20;99.90;;;;;;5013157;28;20421;-57
2022/05/24 01:47:31;;;;;;;10.00;5.15;;;19.20;99.90;;;;;;4989643;28;20488;-54
2022/05/24 01:50:03;;;;;;;8.88;5.10;;;19.20;99.90;;;;;;5013474;28;20030;-54
2022/05/24 01:52:32;;;;;;;5.05;4.18;;;19.10;99.90;;;;;;5012307;28;20057;-54
2022/05/24 01:55:05;;;;;;;4.63;3.95;;;19.00;99.90;;;;;;5012275;28;20037;-55
2022/05/24 01:57:35;;;;;;;6.00;3.80;;;18.90;99.90;;;;;;5011532;28;20084;-58
2022/05/24 02:00:05;;;;;;;4.10;3.40;;;18.80;99.90;;;;;;5011590;28;20045;-55
2022/05/24 02:02:31;;;;;;;5.35;3.38;;;18.70;99.90;;;;;;5011860;28;20025;-54
2022/05/24 02:04:56;;;;;;;6.55;3.90;;;18.60;99.90;;;;;;4994330;28;20034;-56
2022/05/24 02:07:24;;;;;;;5.35;4.53;;;18.50;99.90;;;;;;5011462;28;20041;-56
2022/05/24 02:09:52;;;;;;;5.05;4.60;;;18.40;99.90;;;;;;4979033;28;20037;-52
2022/05/24 02:12:30;;;;;;;5.53;4.68;;;18.30;99.90;;;;;;4995591;28;20084;-55
2022/05/24 02:15:04;;;;;;;5.18;4.65;;;18.30;99.90;;;;;;5013337;28;20037;-54
2022/05/24 02:17:44;;;;;;;6.90;5.55;;;18.30;99.90;;;;;;5011958;28;20052;-55
2022/05/24 02:20:13;;;;;;;5.53;4.90;;;18.30;99.90;;;;;;5012296;28;20073;-55
2022/05/24 02:22:40;;;;;;;7.50;5.82;;;18.40;99.90;;;;;;5004633;28;20113;-56
2022/05/24 02:25:35;;;;;;;6.93;6.13;;;18.30;99.90;;;;;;5011128;28;20038;-53
2022/05/24 02:28:02;;;;;;;6.68;6.07;;;18.40;99.90;;;;;;5008831;28;20070;-56
2022/05/24 02:30:29;;;;;;;7.13;6.43;;;18.30;99.90;;;;;;5011800;28;20046;-56
2022/05/24 02:32:54;;;;;;;8.48;7.03;;;18.20;99.90;;;;;;5012016;28;20450;-53
2022/05/24 02:35:20;;;;;;;7.18;6.45;;;18.30;99.90;;;;;;5010905;28;20061;-56
2022/05/24 02:37:46;;;;;;;7.20;6.50;;;18.30;99.90;;;;;;5012284;28;20030;-55
2022/05/24 02:42:57;;;;;;;9.00;7.50;;;18.30;99.90;;;;;;5012316;28;20034;-51
2022/05/24 02:45:23;;;;;;;9.18;7.60;;;18.30;99.90;;;;;;5011835;28;20045;-58
2022/05/24 02:47:49;;;;;;;9.20;7.40;;;18.20;99.90;;;;;;5011427;28;20033;-54
2022/05/24 02:50:15;;;;;;;10.15;7.50;;;18.20;99.90;;;;;;5011481;28;20510;-56
2022/05/24 02:52:41;;;;;;;8.85;7.95;;;18.10;99.90;;;;;;5012620;28;20030;-55
2022/05/24 02:55:11;;;;;;;8.18;7.40;;;18.10;99.90;;;;;;5011352;28;20121;-57
2022/05/24 02:57:38;;;;;;;8.55;7.32;;;18.10;99.90;;;;;;5012539;28;20112;-54
2022/05/24 03:00:16;;;;;;;8.93;7.75;;;18.00;99.90;;;;;;5014930;28;20084;-57
2022/05/24 03:02:42;;;;;;;8.85;8.05;;;18.10;99.90;;;;;;5015397;28;20038;-57
2022/05/24 03:05:10;;;;;;;9.93;8.45;;;18.10;99.90;;;;;;4996481;28;20034;-58
2022/05/24 03:10:21;;;;;;;9.48;8.40;;;18.10;99.90;;;;;;5015918;28;20033;-56
2022/05/24 03:15:31;;;;;;;9.65;8.43;;;17.80;99.90;;;;;;5014460;28;20026;-55
2022/05/24 03:17:56;;;;;;;11.57;9.07;;;17.90;99.90;;;;;;5015107;28;20057;-56
2022/05/24 03:20:22;;;;;;;10.85;9.75;;;17.90;99.90;;;;;;5015063;28;20077;-53
2022/05/24 03:22:48;;;;;;;9.55;8.65;;;17.80;99.90;;;;;;5007289;28;20031;-53
2022/05/24 03:25:13;;;;;;;10.48;9.48;;;18.00;99.90;;;;;;5016176;28;20049;-58
2022/05/24 03:27:39;;;;;;;11.15;9.95;;;18.00;99.90;;;;;;5015079;28;20033;-55
2022/05/24 03:30:06;;;;;;;11.00;9.85;;;17.90;99.90;;;;;;5014274;28;20033;-60
2022/05/24 03:32:33;;;;;;;11.60;10.40;;;17.90;99.90;;;;;;5014912;28;20656;-58
2022/05/24 03:35:02;;;;;;;10.73;9.65;;;17.80;99.90;;;;;;5014476;28;20077;-55
2022/05/24 03:37:28;;;;;;;13.10;10.52;;;17.90;99.90;;;;;;5014307;28;20030;-58
2022/05/24 03:39:54;;;;;;;11.85;10.65;;;17.90;99.90;;;;;;5014924;28;20033;-57
2022/05/24 03:42:19;;;;;;;12.68;11.48;;;17.80;99.90;;;;;;4997663;28;20440;-57
2022/05/24 03:44:45;;;;;;;12.73;11.52;;;17.70;99.90;;;;;;4997871;28;20109;-56
2022/05/24 03:47:11;;;;;;;13.27;11.43;;;17.70;99.90;;;;;;5014264;28;20060;-57
2022/05/24 03:49:36;;;;;;;13.38;10.82;;;17.70;99.90;;;;;;5014641;28;20038;-56
2022/05/24 03:52:02;;;;;;;11.77;10.57;;;17.80;99.90;;;;;;5014227;28;20053;-53
2022/05/24 03:54:28;;;;;;;12.55;11.27;;;17.80;99.90;;;;;;4995453;28;20030;-57
2022/05/24 03:59:38;;;;;;;11.85;10.75;;;17.90;99.90;;;;;;5009870;28;20489;-55
2022/05/24 04:02:04;;;;;;;11.48;10.10;;;17.90;99.90;;;;;;5013504;28;20038;-56
2022/05/24 04:04:30;;;;;;;12.32;11.02;;;18.00;99.90;;;;;;5013537;28;20080;-57
2022/05/24 04:06:56;;;;;;;13.77;11.32;;;17.90;99.90;;;;;;5013592;28;20680;-56
2022/05/24 04:09:21;;;;;;;11.98;10.80;;;17.80;99.90;;;;;;5013946;28;20025;-55
2022/05/24 04:11:47;;;;;;;13.98;11.25;;;17.80;99.90;;;;;;5014217;28;20061;-57
2022/05/24 04:14:13;;;;;;;12.25;10.50;;;17.90;99.90;;;;;;5014280;28;20109;-56
2022/05/24 04:16:38;;;;;;;11.68;10.52;;;17.90;99.90;;;;;;5013611;28;20030;-54
2022/05/24 04:19:04;;;;;;;11.25;10.15;;;18.00;99.90;;;;;;5014246;28;20120;-56
2022/05/24 04:21:31;;;;;;;11.32;10.13;;;18.10;99.90;;;;;;5013525;28;20033;-53
2022/05/24 04:23:57;;;;;;;11.13;10.07;;;18.20;99.90;;;;;;5005977;28;20497;-55
2022/05/24 04:26:23;;;;;;;14.77;10.30;;;18.10;99.90;;;;;;5012246;28;20041;-51
2022/05/24 04:28:49;;;;;;;11.82;10.73;;;18.00;99.90;;;;;;5013246;28;20033;-52
2022/05/24 04:31:14;;;;;;;18.08;12.68;;;17.90;99.90;;;;;;4996039;28;20030;-55
2022/05/24 04:33:41;;;;;;;13.38;11.18;;;17.80;99.90;;;;;;5014785;28;20034;-57
2022/05/24 04:36:07;;;;;;;11.52;10.23;;;18.00;99.90;;;;;;5013296;28;20037;-55
2022/05/24 04:38:33;;;;;;;13.73;10.85;;;18.10;99.90;;;;;;4995581;28;20030;-57
2022/05/24 04:43:42;;;;;;;11.82;10.70;;;17.90;99.90;;;;;;5009295;28;20120;-57
2022/05/24 04:46:08;;;;;;;11.65;10.45;;;17.60;99.90;;;;;;5012209;28;20094;-56
2022/05/24 04:48:34;;;;;;;12.05;10.80;;;17.50;99.90;;;;;;5012430;28;20034;-57
2022/05/24 04:50:59;;;;;;;12.20;10.50;;;17.50;99.90;;;;;;5013179;28;20041;-53
2022/05/24 04:53:26;;;;;;;12.27;11.00;;;17.50;99.90;;;;;;5012458;28;20073;-55
2022/05/24 04:55:52;;;;;;;14.95;12.32;;;17.60;99.90;;;;;;5012820;28;20477;-57
2022/05/24 04:58:19;;;;;;;16.38;10.57;;;17.40;99.90;;;;;;5013030;28;20037;-56
2022/05/24 05:00:45;;;;;;;11.35;10.15;;;17.50;99.90;;;;;;4995592;28;20049;-56
2022/05/24 05:03:13;;;;;;;12.38;10.18;;;17.40;99.90;;;;;;5013773;28;20504;-56
2022/05/24 05:05:39;;;;;;;10.82;9.73;;;17.60;99.90;;;;;;5012888;28;20046;-59
2022/05/24 05:08:06;;;;;;;11.73;10.52;;;17.60;99.90;;;;;;5012971;28;20072;-60
2022/05/24 05:10:36;;;;;;;15.15;10.38;;;17.50;99.90;;;;;;5013552;28;20547;-55
2022/05/24 05:13:03;;;;;;;12.02;10.35;;;17.70;99.90;;;;;;5012657;28;20481;-56
2022/05/24 05:15:28;;;;;;;11.35;10.20;;;17.70;99.90;;;;;;5012116;28;20037;-54
2022/05/24 05:18:09;;;;;;;11.60;10.00;;;17.60;99.90;;;;;;5012122;28;20043;-54
2022/05/24 05:20:39;;;;;;;10.77;9.73;;;17.50;99.90;;;;;;5011469;28;20113;-57
2022/05/24 05:23:14;;;;;;;10.25;8.32;;;17.70;99.90;;;;;;5005632;28;20548;-57
2022/05/24 05:25:41;;;;;;;;;;;17.80;99.90;;;;;;5012274;28;20044;-55
2022/05/24 05:28:07;;;;;;;9.13;8.23;;;17.80;99.90;;;;;;5012697;28;19905;-54
2022/05/24 05:33:17;;;;;;;10.70;8.77;;;17.80;99.90;;;;;;5012740;28;20069;-55
2022/05/24 05:35:44;;;;;;;12.95;9.88;;;17.90;99.90;;;;;;5011365;28;20069;-52
2022/05/24 05:38:10;;;;;;;10.70;9.60;;;17.80;99.90;;;;;;5012187;28;20050;-56
2022/05/24 05:40:35;;;;;;;11.05;9.93;;;17.80;99.90;;;;;;4994556;28;20057;-55
2022/05/24 05:43:01;;;;;;;10.32;9.30;;;17.80;99.90;;;;;;5013234;28;20485;-54
2022/05/24 05:45:27;;;;;;;11.20;10.15;;;17.90;99.90;;;;;;5010820;28;20069;-51
2022/05/24 05:47:53;;;;;;;13.90;10.63;;;18.20;99.90;;;;;;5012710;28;20042;-54
2022/05/24 05:50:20;;;;;;;14.90;11.07;;;18.30;99.90;;;;;;5012336;28;20030;-55
2022/05/24 05:52:46;;;;;;;13.25;10.35;;;18.10;99.90;;;;;;5011960;28;20038;-52
2022/05/24 05:55:12;;;;;;;11.95;10.75;;;18.10;99.90;;;;;;5011654;28;20037;-54
2022/05/24 05:57:38;;;;;;;12.20;10.90;;;18.00;99.90;;;;;;4994030;28;20030;-57
2022/05/24 06:00:05;;;;;;;12.55;11.25;;;18.00;99.90;;;;;;5012445;28;20034;-55
2022/05/24 06:02:31;;;;;;;13.82;12.43;;;18.20;99.90;;;;;;5011752;28;20036;-57
2022/05/24 06:04:56;;;;;;;14.10;12.05;;;18.30;99.90;;;;;;5012100;28;20121;-59
2022/05/24 06:07:23;;;;;;;14.75;13.25;;;18.10;99.90;;;;;;5012194;28;20034;-55
2022/05/24 06:09:50;;;;;;;15.88;14.35;;;18.00;99.90;;;;;;5012427;28;20335;-56
2022/05/24 06:12:15;;;;;;;15.85;14.30;;;17.90;99.90;;;;;;4994235;28;20061;-56
2022/05/24 06:14:41;;;;;;;16.80;14.30;;;18.00;99.90;;;;;;5011669;28;20061;-58
2022/05/24 06:17:07;;;;;;;15.95;14.27;;;18.00;99.90;;;;;;5011714;28;20504;-52
2022/05/24 06:19:32;;;;;;;18.30;14.65;;;18.10;99.90;;;;;;5012574;28;20045;-54
2022/05/24 06:21:58;;;;;;;16.55;13.88;;;18.30;99.90;;;;;;4993092;28;20033;-57
2022/05/24 06:24:23;;;;;;;16.95;14.52;;;18.20;99.90;;;;;;5006622;28;20377;-56
2022/05/24 06:26:50;;;;;;;14.25;12.88;;;18.40;99.90;;;;;;5012130;28;20037;-57
2022/05/24 06:29:17;;;;;;;16.13;14.00;;;18.30;99.90;;;;;;5012102;28;20037;-54
2022/05/24 06:31:44;;;;;;;15.50;13.93;;;18.40;99.90;;;;;;5014466;28;20034;-57
2022/05/24 06:34:13;;;;;;;15.55;13.85;;;18.50;99.90;;;;;;4999329;28;20034;-58
2022/05/24 06:36:39;;;;;;;14.27;12.88;;;18.50;99.90;;;;;;5014974;28;20030;-60
2022/05/24 06:39:04;;;;;;;15.48;12.50;;;18.40;99.90;;;;;;4999506;28;20048;-57
2022/05/24 06:41:30;;;;;;;16.92;12.43;;;18.50;99.90;;;;;;5016420;28;20064;-59
2022/05/24 06:43:56;;;;;;;16.77;15.00;;;18.80;99.90;;;;;;5016918;28;20052;-58
2022/05/24 06:46:21;;;;;;;14.55;12.27;;;18.80;99.90;;;;;;4982505;28;20042;-57
2022/05/24 06:48:47;;;;;;;15.00;12.20;;;18.80;99.90;;;;;;5016826;28;20037;-57
2022/05/24 06:51:19;;;;;;;11.52;9.85;;;19.10;99.90;;;;;;5015995;28;20029;-54
2022/05/24 06:53:47;;;;;;;13.48;12.07;;;19.40;99.90;;;;;;4998316;28;20034;-55
2022/05/24 06:56:13;;;;;;;14.10;11.13;;;19.30;99.90;;;;;;5015489;28;20037;-52
2022/05/24 06:58:39;;;;;;;12.02;10.75;;;19.20;99.90;;;;;;5014528;28;20030;-58
2022/05/24 07:03:54;;;;;;;12.38;9.05;;;19.30;99.90;;;;;;5015348;28;20033;-53
2022/05/24 07:06:20;;;;;;;10.10;9.13;;;19.20;99.40;;;;;;5014305;28;20433;-54
2022/05/24 07:08:47;;;;;;;9.43;8.52;;;19.10;99.20;;;;;;4997484;28;20125;-52
2022/05/24 07:11:16;;;;;;;8.98;8.07;;;19.10;98.90;;;;;;5011071;28;20044;-52
2022/05/24 07:13:42;;;;;;;10.52;7.95;;;18.90;98.50;;;;;;5006529;28;20025;-51
2022/05/24 07:16:09;;;;;;;10.00;8.18;;;19.10;98.80;;;;;;5015337;28;20511;-54
2022/05/24 07:18:35;;;;;;;11.13;8.65;;;19.20;98.80;;;;;;5016647;28;20056;-55
2022/05/24 07:21:04;;;;;;;8.98;8.07;;;19.30;98.70;;;;;;5016502;28;20046;-51
2022/05/24 07:23:31;;;;;;;12.27;7.80;;;19.20;98.70;;;;;;5008258;28;20109;-54
2022/05/24 07:26:16;;;;;;;9.10;7.25;;;19.10;98.90;;;;;;5011882;28;20136;-54
2022/05/24 07:28:42;;;;;;;8.60;7.55;;;19.20;98.70;;;;;;5015346;28;20025;-54
2022/05/24 07:31:08;;;;;;;9.95;7.95;;;19.10;98.90;;;;;;5016356;28;20041;-56
2022/05/24 07:33:34;;;;;;;9.02;8.02;;;19.20;98.70;;;;;;5015065;28;20436;-55
2022/05/24 07:36:00;;;;;;;8.55;7.75;;;19.10;98.70;;;;;;5013473;28;20080;-54
2022/05/24 07:38:25;;;;;;;10.70;8.63;;;19.00;98.30;;;;;;5011300;28;20465;-54
2022/05/24 07:46:35;;;;;;;8.43;7.20;;;18.80;98.80;;;;;;5009915;28;20066;-68
2022/05/24 07:49:01;;;;;;;9.07;6.75;;;18.80;98.60;;;;;;4994140;28;20030;-50
2022/05/24 07:51:27;;;;;;;6.47;5.88;;;18.90;98.10;;;;;;4997699;28;20036;-51
2022/05/24 07:53:53;;;;;;;5.65;5.07;;;19.10;97.50;;;;;;5016764;28;20068;-52
2022/05/24 07:56:19;;;;;;;7.97;5.30;;;19.00;97.10;;;;;;5011492;28;20112;-56
2022/05/24 07:58:48;;;;;;;7.47;5.07;;;18.90;97.40;;;;;;5010722;28;20037;-50
2022/05/24 08:01:16;;;;;;;6.30;5.65;;;19.30;96.90;;;;;;5011828;28;20108;-59
2022/05/24 08:03:42;;;;;;;5.95;5.35;;;19.50;96.70;;;;;;5009834;28;20053;-52
2022/05/24 08:06:08;;;;;;;6.00;4.85;;;19.70;96.00;;;;;;5012016;28;20065;-56
2022/05/24 08:08:34;;;;;;;7.20;6.47;;;19.50;96.50;;;;;;5012733;28;20026;-56
2022/05/24 08:11:00;;;;;;;7.82;6.55;;;19.60;96.70;;;;;;5013787;28;20053;-56
2022/05/24 08:13:26;;;;;;;10.02;5.57;;;19.70;96.60;;;;;;5013475;28;20112;-55
2022/05/24 08:15:53;;;;;;;7.70;5.72;;;19.60;96.30;;;;;;5012670;28;20123;-55
2022/05/24 08:18:20;;;;;;;6.95;5.55;;;19.70;96.60;;;;;;4995249;28;20030;-56
2022/05/24 08:20:46;;;;;;;6.53;5.43;;;19.80;96.30;;;;;;5013320;28;20045;-51
2022/05/24 08:23:13;;;;;;;10.52;6.05;;;19.70;96.60;;;;;;5012136;28;20104;-55
2022/05/24 08:25:39;;;;;;;8.60;6.00;;;19.90;96.20;;;;;;5012733;28;20124;-52
2022/05/24 08:28:07;;;;;;;6.90;5.22;;;20.10;95.90;;;;;;5012888;28;20068;-55
2022/05/24 08:30:35;;;;;;;7.57;5.38;;;20.10;96.10;;;;;;4993910;28;20545;-55
2022/05/24 08:33:04;;;;;;;12.43;5.82;;;20.20;95.80;;;;;;5011683;28;20033;-53
2022/05/24 08:35:32;;;;;;;6.55;5.28;;;20.20;95.90;;;;;;5012468;28;20030;-53
2022/05/24 08:37:58;;;;;;;6.43;5.30;;;20.30;95.40;;;;;;5012050;28;20072;-57
2022/05/24 08:40:24;;;;;;;8.73;4.95;;;20.40;94.50;;;;;;5013024;28;20045;-50
2022/05/24 08:43:27;;;;;;;7.78;5.82;;;20.50;94.20;;;;;;5016580;28;20408;-58
2022/05/24 08:49:14;;;;;;;10.18;6.30;;;20.50;94.20;;;;;;5013840;28;20037;-51
2022/05/24 08:51:54;;;;;;;10.77;5.72;;;20.60;94.50;;;;;;5013911;28;20033;-51
2022/05/24 08:54:25;;;;;;;10.52;5.95;;;20.80;94.50;;;;;;4995105;28;20052;-49
2022/05/24 08:56:56;;;;;;;6.47;5.18;;;20.80;93.60;;;;;;5012598;28;20029;-51
2022/05/24 08:59:27;;;;;;;7.50;4.78;;;20.60;94.10;;;;;;5013550;28;20060;-50
2022/05/24 09:01:54;;;;;;;8.00;5.05;;;20.60;94.40;;;;;;5012199;28;20431;-52
2022/05/24 09:04:20;;;;;;;8.15;5.03;;;20.60;94.70;;;;;;5013719;28;20172;-51
2022/05/24 09:06:51;;;;;;;5.45;4.88;;;20.60;94.00;;;;;;5012205;28;20068;-51
2022/05/24 09:09:19;;;;;;;5.97;4.82;;;20.60;94.00;;;;;;5012231;28;20034;-52
2022/05/24 09:12:10;;;;;;;4.72;4.32;;;20.90;93.80;;;;;;5012757;28;20029;-54
2022/05/24 09:15:06;;;;;;;8.23;4.10;;;20.70;94.20;;;;;;5011819;28;20493;-54
2022/05/24 09:17:52;;;;;;;5.63;4.30;;;20.80;93.40;;;;;;5010279;28;20038;-51
2022/05/24 09:20:31;;;;;;;8.15;4.70;;;20.80;93.70;;;;;;5010937;28;20028;-54
2022/05/24 09:23:12;;;;;;;5.53;4.68;;;20.90;93.30;;;;;;4994734;28;20030;-51
2022/05/24 09:25:57;;;;;;;5.70;4.53;;;20.80;93.50;;;;;;5011441;28;20099;-54
2022/05/24 09:28:42;;;;;;;;;;;20.90;93.10;;;;;;5011243;28;20112;-50
2022/05/24 09:31:12;;;;;;;7.07;5.47;;;20.80;93.50;;;;;;5001115;28;19909;-51
2022/05/24 09:33:41;;;;;;;5.88;5.38;;;20.80;94.20;;;;;;5011866;28;20026;-51
2022/05/24 09:36:07;;;;;;;11.35;5.00;;;20.80;93.70;;;;;;5010561;28;20026;-51
2022/05/24 09:38:38;;;;;;;8.98;6.10;;;21.10;93.90;;;;;;5011328;28;20026;-52
2022/05/24 09:41:19;;;;;;;7.95;5.30;;;21.00;93.60;;;;;;5011101;28;20018;-51
2022/05/24 09:43:58;;;;;;;6.63;5.70;;;21.10;93.20;;;;;;5012237;28;20042;-52
2022/05/24 09:46:26;;;;;;;10.43;4.95;;;20.90;93.90;;;;;;5011159;28;20060;-54
2022/05/24 09:48:56;;;;;;;10.93;4.75;;;21.20;93.70;;;;;;5008997;28;20240;-54
2022/05/24 09:51:37;;;;;;;7.93;4.55;;;21.10;93.50;;;;;;5010239;28;20057;-52
2022/05/24 09:54:12;;;;;;;8.85;4.75;;;21.10;93.90;;;;;;5010808;28;20106;-51
2022/05/24 09:56:38;;;;;;;6.22;4.80;;;20.90;94.20;;;;;;5008441;28;20378;-55
2022/05/24 09:59:07;;;;;;;6.88;4.63;;;21.00;93.60;;;;;;5011063;28;20037;-52
2022/05/24 10:01:40;;;;;;;6.43;3.92;;;21.10;93.60;;;;;;5010716;28;20109;-55
2022/05/24 10:04:18;;;;;;;9.20;4.95;;;21.20;93.70;;;;;;5010013;28;20404;-54
2022/05/24 10:06:54;;;;;;;11.27;4.72;;;21.20;93.50;;;;;;5011888;28;20105;-51
2022/05/24 10:09:19;;;;;;;13.02;4.10;;;21.20;93.50;;;;;;5015801;28;20033;-53
2022/05/24 10:11:59;;;;;;;6.00;4.03;;;21.40;93.30;;;;;;5016519;28;20064;-56
2022/05/24 10:14:46;;;;;;;5.65;4.38;;;21.60;93.00;;;;;;5014804;28;20026;-55
2022/05/24 10:17:36;;;;;;;6.15;4.90;;;21.50;93.10;;;;;;4995642;28;20026;-51
2022/05/24 10:20:28;;;;;;;14.07;5.57;;;21.70;93.20;;;;;;5013724;28;20026;-53
2022/05/24 10:23:28;;;;;;;8.25;4.40;;;22.00;92.60;;;;;;5014712;28;20033;-50
2022/05/24 10:26:12;;;;;;;4.90;4.35;;;22.10;92.30;;;;;;5014681;28;20065;-54
2022/05/24 10:29:11;;;;;;;5.53;4.50;;;22.10;92.30;;;;;;5016249;28;20030;-49
2022/05/24 10:32:07;;;;;;;9.45;4.10;;;22.10;92.40;;;;;;5014626;28;20042;-47
2022/05/24 10:40:34;;;;;;;5.28;3.95;;;21.90;93.00;;;;;;5014549;28;20034;-48
2022/05/24 10:43:38;;;;;;;4.00;3.67;;;21.50;93.90;;;;;;5015091;28;20038;-52
2022/05/24 10:46:13;;;;;;;7.18;4.03;;;21.20;94.30;;;;;;4996708;28;20763;-47
2022/05/24 10:48:48;;;;;;;6.25;4.60;;;21.40;94.00;;;;;;5014944;28;20026;-51
2022/05/24 10:51:26;;;;;;;5.65;3.88;;;21.50;94.30;;;;;;5013979;28;20033;-52
2022/05/24 10:53:58;;;;;;;4.82;4.10;;;21.40;94.20;;;;;;5013788;28;20041;-54
2022/05/24 10:56:39;;;;;;;5.03;4.10;;;21.50;94.20;;;;;;4996180;28;20029;-51
2022/05/24 10:59:30;;;;;;;5.32;4.28;;;21.50;95.40;;;;;;5014154;28;20034;-48
2022/05/24 11:02:08;;;;;;;7.95;5.30;;;20.80;98.30;;;;;;5014435;28;20033;-61
2022/05/24 11:04:47;;;;;;;5.50;4.82;;;19.90;99.90;;;;;;5013906;28;20121;-59
2022/05/24 11:07:17;;;;;;;5.90;5.00;;;19.10;99.90;;;;;;5012942;28;20111;-58
2022/05/24 11:10:03;;;;;;;6.40;5.30;;;18.60;99.90;;;;;;5013216;28;20345;-57
2022/05/24 11:12:35;;;;;;;5.70;5.07;;;18.30;99.90;;;;;;5013787;28;20048;-53
2022/05/24 11:15:32;;;;;;;6.20;4.72;;;18.40;99.90;;;;;;5013845;28;20022;-55
2022/05/24 11:18:01;;;;;;;10.25;4.90;;;18.30;99.90;;;;;;5012994;28;20041;-55
2022/05/24 11:20:35;;;;;;;5.50;4.13;;;18.30;99.90;;;;;;5014314;28;20034;-53
2022/05/24 11:23:18;;;;;;;;;;;18.50;99.90;;;;;;5013402;28;20026;-55
2022/05/24 11:26:08;;;;;;;3.85;3.30;;;18.80;99.90;;;;;;5013562;28;20372;-57
2022/05/24 11:28:43;;;;;;;6.72;3.13;;;18.70;99.90;;;;;;5013898;28;20112;-54
2022/05/24 11:31:21;;;;;;;;;;;18.90;99.90;;;;;;5014639;28;20081;-59
2022/05/24 11:33:48;;;;;;;3.97;3.17;;;19.10;99.90;;;;;;5014684;28;19921;-52
2022/05/24 11:36:31;;;;;;;4.57;2.90;;;18.90;99.90;;;;;;5014733;28;20113;-50
2022/05/24 11:39:09;;;;;;;4.40;2.65;;;19.00;99.90;;;;;;5013360;28;20026;-51
2022/05/24 11:41:34;;;;;;;3.45;2.47;;;19.00;99.90;;;;;;5013103;28;20045;-55
2022/05/24 11:44:04;;;;;;;3.10;2.40;;;19.00;99.90;;;;;;5014176;28;20076;-50
2022/05/24 11:46:45;;;;;;;3.08;2.50;;;19.10;99.90;;;;;;5013398;28;20038;-54
2022/05/24 11:49:33;;;;;;;3.38;2.22;;;19.30;99.90;;;;;;5012784;28;20037;-48
2022/05/24 11:52:01;;;;;;;2.40;2.08;;;19.00;99.90;;;;;;5013361;28;20077;-52
2022/05/24 11:54:29;;;;;;;3.08;2.42;;;19.10;99.90;;;;;;5014066;28;20133;-51
2022/05/24 11:57:01;;;;;;;3.00;2.30;;;19.10;99.90;;;;;;5014038;28;20037;-54
2022/05/24 11:59:48;;;;;;;2.30;2.03;;;19.10;99.90;;;;;;5013695;28;20026;-49
2022/05/24 12:02:19;;;;;;;4.72;2.33;;;19.20;99.60;;;;;;5013661;28;20025;-51
2022/05/24 12:07:57;;;;;;;4.38;1.42;;;19.20;96.20;;;;;;5013079;28;20466;-50
2022/05/24 12:10:26;;;;;;;2.08;1.30;;;19.00;95.40;;;;;;4994981;28;20034;-51
2022/05/24 12:13:03;;;;;;;1.45;1.35;;;18.80;95.60;;;;;;5012672;28;20070;-53
2022/05/24 12:15:29;;;;;;;2.22;1.65;;;18.80;95.70;;;;;;5012911;28;20033;-47
2022/05/24 12:17:57;;;;;;;3.45;1.50;;;19.00;95.10;;;;;;5013095;28;20029;-52
2022/05/24 12:20:35;;;;;;;3.67;1.83;;;19.50;94.60;;;;;;5012751;28;20039;-49
2022/05/24 12:23:06;;;;;;;1.67;1.58;;;19.70;93.40;;;;;;5013507;28;20032;-51
2022/05/24 12:25:54;;;;;;;4.68;1.80;;;19.40;93.70;;;;;;4994354;28;20096;-56
2022/05/24 12:28:23;;;;;;;2.55;1.50;;;19.20;94.30;;;;;;5013774;28;20029;-50
2022/05/24 12:30:51;;;;;;;6.07;2.20;;;19.50;94.50;;;;;;5020383;28;20026;-54
2022/05/24 12:33:31;;;;;;;3.28;1.80;;;19.20;94.60;;;;;;5012859;28;20040;-54
2022/05/24 12:36:05;;;;;;;3.20;1.90;;;19.20;94.60;;;;;;5012556;28;20110;-54
2022/05/24 12:38:33;;;;;;;5.57;2.22;;;19.40;94.20;;;;;;5011762;28;20032;-52
2022/05/24 12:41:16;;;;;;;2.00;1.50;;;19.40;93.60;;;;;;5013201;28;20033;-55
2022/05/24 12:44:00;;;;;;;2.33;1.70;;;19.50;93.70;;;;;;5013001;28;20033;-52
2022/05/24 12:46:33;;;;;;;3.10;1.73;;;19.40;93.60;;;;;;5011289;28;20643;-58
2022/05/24 12:49:09;;;;;;;2.35;1.67;;;19.50;93.70;;;;;;4996276;28;20030;-52
2022/05/24 12:51:36;;;;;;;3.22;2.22;;;19.80;93.50;;;;;;4994700;28;20568;-53
2022/05/24 12:54:33;;;;;;;6.15;2.50;;;19.80;93.30;;;;;;5011453;28;20705;-53
2022/05/24 12:57:03;;;;;;;1.92;1.45;;;20.00;93.50;;;;;;4999794;28;20038;-56
2022/05/24 12:59:34;;;;;;;3.10;1.90;;;20.10;93.50;;;;;;5012491;28;20042;-57
2022/05/24 13:02:14;;;;;;;2.22;1.67;;;19.90;93.20;;;;;;5012954;28;20029;-57
2022/05/24 13:04:40;;;;;;;3.50;1.95;;;19.90;93.70;;;;;;5011939;28;20033;-58
2022/05/24 13:07:42;;;;;;;4.50;1.98;;;20.10;93.50;;;;;;5013114;28;20934;-56
2022/05/24 13:10:25;;;;;;;2.63;1.67;;;20.60;92.90;;;;;;5009362;28;20046;-56
2022/05/24 13:13:05;;;;;;;4.97;2.40;;;20.50;91.80;;;;;;5012235;28;20038;-55
2022/05/24 13:15:44;;;;;;;3.05;1.90;;;20.70;91.80;;;;;;5009975;28;20029;-52
2022/05/24 13:18:15;;;;;;;3.10;1.75;;;20.80;91.40;;;;;;5012506;28;20030;-53
2022/05/24 13:20:47;;;;;;;2.67;1.70;;;20.70;91.60;;;;;;5010696;28;20156;-53
2022/05/24 13:23:13;;;;;;;2.85;1.77;;;20.50;91.30;;;;;;5009300;28;20405;-54
2022/05/24 13:26:17;;;;;;;5.38;1.83;;;20.50;91.00;;;;;;5011652;28;20022;-55
2022/05/24 13:28:48;;;;;;;4.67;2.27;;;20.80;90.90;;;;;;4932864;29;20063;-57
2022/05/24 13:34:21;;;;;;;3.42;2.03;;;21.00;90.10;;;;;;4986007;28;20046;-53
2022/05/24 13:36:49;;;;;;;2.35;1.63;;;21.10;90.30;;;;;;5013367;28;20028;-56
2022/05/24 13:39:19;;;;;;;2.40;1.67;;;21.10;89.10;;;;;;5016495;28;20026;-55
2022/05/24 13:42:05;;;;;;;3.42;2.13;;;21.20;89.50;;;;;;5014961;28;20026;-55
2022/05/24 13:44:38;;;;;;;4.90;2.28;;;21.60;89.10;;;;;;5013909;28;20112;-57
2022/05/24 13:47:23;;;;;;;3.05;1.95;;;21.20;88.90;;;;;;5011746;28;20029;-54